sensor_id;sensor_type;location;lat;lon;timestamp;temperature;humidity
12720;DHT22;6424;48.520;11.228;2023-02-13T00:01:12;0.70;99.90
12720;DHT22;6424;48.520;11.228;2023-02-13T00:03:53;0.70;99.90
12720;DHT22;6424;48.520;11.228;2023-02-13T00:06:33;0.70;99.90
12720;DHT22;6424;48.520;11.228;2023-02-13T00:09:14;0.60;99.90
12720;DHT22;6424;48.520;11.228;2023-02-13T00:11:55;0.50;99.90
12720;DHT22;6424;48.520;11.228;2023-02-13T00:14:38;0.50;99.90
12720;DHT22;6424;48.520;11.228;2023-02-13T00:17:19;0.40;99.90
12720;DHT22;6424;48.520;11.228;2023-02-13T00:19:59;0.40;99.90
12720;DHT22;6424;48.520;11.228;2023-02-13T00:22:40;0.40;99.90
12720;DHT22;6424;48.520;11.228;2023-02-13T00:25:21;0.30;99.90
12720;DHT22;6424;48.520;11.228;2023-02-13T00:28:02;0.30;99.90
12720;DHT22;6424;48.520;11.228;2023-02-13T00:30:43;0.30;99.90
12720;DHT22;6424;48.520;11.228;2023-02-13T00:33:24;0.20;99.90
12720;DHT22;6424;48.520;11.228;2023-02-13T00:35:50;0.30;99.90
12720;DHT22;6424;48.520;11.228;2023-02-13T00:38:30;0.20;99.90
12720;DHT22;6424;48.520;11.228;2023-02-13T00:41:12;0.20;99.90
12720;DHT22;6424;48.520;11.228;2023-02-13T00:43:53;0.20;99.90
12720;DHT22;6424;48.520;11.228;2023-02-13T00:46:34;0.10;99.90
12720;DHT22;6424;48.520;11.228;2023-02-13T00:48:59;0.20;99.90
12720;DHT22;6424;48.520;11.228;2023-02-13T00:51:40;0.10;99.90
12720;DHT22;6424;48.520;11.228;2023-02-13T00:54:21;0.10;99.90
12720;DHT22;6424;48.520;11.228;2023-02-13T00:57:02;0.10;99.90
12720;DHT22;6424;48.520;11.228;2023-02-13T00:59:43;0.10;99.90
12720;DHT22;6424;48.520;11.228;2023-02-13T01:02:24;0.00;99.90
12720;DHT22;6424;48.520;11.228;2023-02-13T01:05:05;0.00;99.90
12720;DHT22;6424;48.520;11.228;2023-02-13T01:07:46;0.00;99.90
12720;DHT22;6424;48.520;11.228;2023-02-13T01:10:27;0.00;99.90
12720;DHT22;6424;48.520;11.228;2023-02-13T01:13:08;0.00;99.90
12720;DHT22;6424;48.520;11.228;2023-02-13T01:15:35;0.00;99.90
12720;DHT22;6424;48.520;11.228;2023-02-13T01:18:17;0.00;99.90
12720;DHT22;6424;48.520;11.228;2023-02-13T01:21:00;-0.10;99.90
12720;DHT22;6424;48.520;11.228;2023-02-13T01:23:42;-0.10;99.90
12720;DHT22;6424;48.520;11.228;2023-02-13T01:26:23;-0.10;99.90
12720;DHT22;6424;48.520;11.228;2023-02-13T01:29:04;-0.10;99.90
12720;DHT22;6424;48.520;11.228;2023-02-13T01:31:30;-0.10;99.90
12720;DHT22;6424;48.520;11.228;2023-02-13T01:34:11;-0.10;99.90
12720;DHT22;6424;48.520;11.228;2023-02-13T01:36:51;-0.10;99.90
12720;DHT22;6424;48.520;11.228;2023-02-13T01:39:32;-0.10;99.90
12720;DHT22;6424;48.520;11.228;2023-02-13T01:42:24;-0.10;99.90
12720;DHT22;6424;48.520;11.228;2023-02-13T01:45:23;-0.10;99.90
12720;DHT22;6424;48.520;11.228;2023-02-13T01:48:17;-0.10;99.90
12720;DHT22;6424;48.520;11.228;2023-02-13T01:51:03;-0.10;99.90
12720;DHT22;6424;48.520;11.228;2023-02-13T01:53:51;-0.10;99.90
12720;DHT22;6424;48.520;11.228;2023-02-13T01:56:38;-0.10;99.90
12720;DHT22;6424;48.520;11.228;2023-02-13T01:59:28;-0.20;99.90
12720;DHT22;6424;48.520;11.228;2023-02-13T02:01:56;-0.20;99.90
12720;DHT22;6424;48.520;11.228;2023-02-13T02:04:38;-0.20;99.90
12720;DHT22;6424;48.520;11.228;2023-02-13T02:07:26;-0.20;99.90
12720;DHT22;6424;48.520;11.228;2023-02-13T02:10:12;-0.20;99.90
12720;DHT22;6424;48.520;11.228;2023-02-13T02:13:13;-0.20;99.90
12720;DHT22;6424;48.520;11.228;2023-02-13T02:15:54;-0.20;99.90
12720;DHT22;6424;48.520;11.228;2023-02-13T02:18:35;-0.20;99.90
12720;DHT22;6424;48.520;11.228;2023-02-13T02:21:45;-0.20;99.90
12720;DHT22;6424;48.520;11.228;2023-02-13T02:41:46;-0.20;99.90
12720;DHT22;6424;48.520;11.228;2023-02-13T02:57:15;-0.20;99.90
12720;DHT22;6424;48.520;11.228;2023-02-13T02:59:58;-0.20;99.90
12720;DHT22;6424;48.520;11.228;2023-02-13T03:02:58;-0.20;99.90
12720;DHT22;6424;48.520;11.228;2023-02-13T03:05:59;-0.30;99.90
12720;DHT22;6424;48.520;11.228;2023-02-13T03:08:56;-0.30;99.90
12720;DHT22;6424;48.520;11.228;2023-02-13T03:11:56;-0.20;99.90
12720;DHT22;6424;48.520;11.228;2023-02-13T03:14:56;-0.30;99.90
12720;DHT22;6424;48.520;11.228;2023-02-13T03:17:22;-0.20;99.90
12720;DHT22;6424;48.520;11.228;2023-02-13T03:20:45;-0.20;99.90
12720;DHT22;6424;48.520;11.228;2023-02-13T03:26:37;-0.30;99.90
12720;DHT22;6424;48.520;11.228;2023-02-13T03:29:37;-0.30;99.90
12720;DHT22;6424;48.520;11.228;2023-02-13T03:39:20;-0.40;99.90
12720;DHT22;6424;48.520;11.228;2023-02-13T03:42:30;-0.40;99.90
12720;DHT22;6424;48.520;11.228;2023-02-13T03:45:18;-0.50;99.90
12720;DHT22;6424;48.520;11.228;2023-02-13T03:48:26;-0.50;99.90
12720;DHT22;6424;48.520;11.228;2023-02-13T03:54:30;-0.50;99.90
12720;DHT22;6424;48.520;11.228;2023-02-13T03:57:32;-0.50;99.90
12720;DHT22;6424;48.520;11.228;2023-02-13T04:00:48;-0.50;99.90
12720;DHT22;6424;48.520;11.228;2023-02-13T04:06:34;-0.50;99.90
12720;DHT22;6424;48.520;11.228;2023-02-13T04:09:18;-0.40;99.90
12720;DHT22;6424;48.520;11.228;2023-02-13T04:16:00;-0.40;99.90
12720;DHT22;6424;48.520;11.228;2023-02-13T04:18:10;-0.40;99.90
12720;DHT22;6424;48.520;11.228;2023-02-13T04:20:53;-0.40;99.90
12720;DHT22;6424;48.520;11.228;2023-02-13T04:23:34;-0.40;99.90
12720;DHT22;6424;48.520;11.228;2023-02-13T04:26:17;-0.40;99.90
12720;DHT22;6424;48.520;11.228;2023-02-13T04:29:00;-0.40;99.90
12720;DHT22;6424;48.520;11.228;2023-02-13T04:31:40;-0.40;99.90
12720;DHT22;6424;48.520;11.228;2023-02-13T04:34:06;-0.40;99.90
12720;DHT22;6424;48.520;11.228;2023-02-13T04:36:47;-0.40;99.90
12720;DHT22;6424;48.520;11.228;2023-02-13T04:39:28;-0.40;99.90
12720;DHT22;6424;48.520;11.228;2023-02-13T04:42:08;-0.40;99.90
12720;DHT22;6424;48.520;11.228;2023-02-13T04:44:49;-0.40;99.90
12720;DHT22;6424;48.520;11.228;2023-02-13T04:47:15;-0.50;99.90
12720;DHT22;6424;48.520;11.228;2023-02-13T04:49:56;-0.40;99.90
12720;DHT22;6424;48.520;11.228;2023-02-13T04:52:37;-0.40;99.90
12720;DHT22;6424;48.520;11.228;2023-02-13T04:55:02;-0.40;99.90
12720;DHT22;6424;48.520;11.228;2023-02-13T04:57:29;-0.40;99.90
12720;DHT22;6424;48.520;11.228;2023-02-13T05:00:10;-0.30;99.90
12720;DHT22;6424;48.520;11.228;2023-02-13T05:02:51;-0.30;99.90
12720;DHT22;6424;48.520;11.228;2023-02-13T05:05:33;-0.30;99.90
12720;DHT22;6424;48.520;11.228;2023-02-13T05:08:14;-0.30;99.90
12720;DHT22;6424;48.520;11.228;2023-02-13T05:10:55;-0.30;99.90
12720;DHT22;6424;48.520;11.228;2023-02-13T05:13:36;-0.30;99.90
12720;DHT22;6424;48.520;11.228;2023-02-13T05:16:02;-0.30;99.90
12720;DHT22;6424;48.520;11.228;2023-02-13T05:18:42;-0.30;99.90
12720;DHT22;6424;48.520;11.228;2023-02-13T05:21:23;-0.30;99.90
12720;DHT22;6424;48.520;11.228;2023-02-13T05:24:22;-0.30;99.90
12720;DHT22;6424;48.520;11.228;2023-02-13T05:27:03;-0.20;99.90
12720;DHT22;6424;48.520;11.228;2023-02-13T05:29:44;-0.30;99.90
12720;DHT22;6424;48.520;11.228;2023-02-13T05:32:25;-0.30;99.90
12720;DHT22;6424;48.520;11.228;2023-02-13T05:35:06;-0.30;99.90
12720;DHT22;6424;48.520;11.228;2023-02-13T05:37:47;-0.30;99.90
12720;DHT22;6424;48.520;11.228;2023-02-13T05:40:28;-0.30;99.90
12720;DHT22;6424;48.520;11.228;2023-02-13T05:43:08;-0.30;99.90
12720;DHT22;6424;48.520;11.228;2023-02-13T05:45:49;-0.30;99.90
12720;DHT22;6424;48.520;11.228;2023-02-13T05:48:32;-0.30;99.90
12720;DHT22;6424;48.520;11.228;2023-02-13T05:51:13;-0.30;99.90
12720;DHT22;6424;48.520;11.228;2023-02-13T05:53:54;-0.30;99.90
12720;DHT22;6424;48.520;11.228;2023-02-13T05:56:35;-0.30;99.90
12720;DHT22;6424;48.520;11.228;2023-02-13T05:59:16;-0.30;99.90
12720;DHT22;6424;48.520;11.228;2023-02-13T06:01:41;-0.30;99.90
12720;DHT22;6424;48.520;11.228;2023-02-13T06:04:22;-0.30;99.90
12720;DHT22;6424;48.520;11.228;2023-02-13T06:07:03;-0.20;99.90
12720;DHT22;6424;48.520;11.228;2023-02-13T06:09:44;-0.20;99.90
12720;DHT22;6424;48.520;11.228;2023-02-13T06:12:09;-0.20;99.90
12720;DHT22;6424;48.520;11.228;2023-02-13T06:14:50;-0.20;99.90
12720;DHT22;6424;48.520;11.228;2023-02-13T06:17:31;-0.20;99.90
12720;DHT22;6424;48.520;11.228;2023-02-13T06:20:12;-0.30;99.90
12720;DHT22;6424;48.520;11.228;2023-02-13T06:22:53;-0.20;99.90
12720;DHT22;6424;48.520;11.228;2023-02-13T06:25:35;-0.30;99.90
12720;DHT22;6424;48.520;11.228;2023-02-13T06:28:16;-0.30;99.90
12720;DHT22;6424;48.520;11.228;2023-02-13T06:30:57;-0.20;99.90
12720;DHT22;6424;48.520;11.228;2023-02-13T06:33:37;-0.30;99.90
12720;DHT22;6424;48.520;11.228;2023-02-13T06:36:18;-0.30;99.90
12720;DHT22;6424;48.520;11.228;2023-02-13T06:38:44;-0.30;99.90
12720;DHT22;6424;48.520;11.228;2023-02-13T06:41:24;-0.30;99.90
12720;DHT22;6424;48.520;11.228;2023-02-13T06:44:05;-0.20;99.90
12720;DHT22;6424;48.520;11.228;2023-02-13T06:46:47;-0.20;99.90
12720;DHT22;6424;48.520;11.228;2023-02-13T06:49:28;-0.20;99.90
12720;DHT22;6424;48.520;11.228;2023-02-13T06:52:08;-0.20;99.90
12720;DHT22;6424;48.520;11.228;2023-02-13T06:54:49;-0.20;99.90
12720;DHT22;6424;48.520;11.228;2023-02-13T06:57:30;-0.20;99.90
12720;DHT22;6424;48.520;11.228;2023-02-13T07:00:15;-0.30;99.90
12720;DHT22;6424;48.520;11.228;2023-02-13T07:03:01;-0.30;99.90
12720;DHT22;6424;48.520;11.228;2023-02-13T07:05:27;-0.30;99.90
12720;DHT22;6424;48.520;11.228;2023-02-13T07:08:09;-0.20;99.90
12720;DHT22;6424;48.520;11.228;2023-02-13T07:10:51;-0.20;99.90
12720;DHT22;6424;48.520;11.228;2023-02-13T07:13:31;-0.20;99.90
12720;DHT22;6424;48.520;11.228;2023-02-13T07:16:12;-0.10;99.90
12720;DHT22;6424;48.520;11.228;2023-02-13T07:18:38;-0.20;99.90
12720;DHT22;6424;48.520;11.228;2023-02-13T07:21:19;-0.10;99.90
12720;DHT22;6424;48.520;11.228;2023-02-13T07:24:00;-0.20;99.90
12720;DHT22;6424;48.520;11.228;2023-02-13T07:26:40;-0.20;99.90
12720;DHT22;6424;48.520;11.228;2023-02-13T07:29:21;-0.20;99.90
12720;DHT22;6424;48.520;11.228;2023-02-13T07:32:02;-0.20;99.90
12720;DHT22;6424;48.520;11.228;2023-02-13T07:34:28;-0.20;99.90
12720;DHT22;6424;48.520;11.228;2023-02-13T07:37:08;-0.20;99.90
12720;DHT22;6424;48.520;11.228;2023-02-13T07:39:50;-0.20;99.90
12720;DHT22;6424;48.520;11.228;2023-02-13T07:42:32;-0.20;99.90
12720;DHT22;6424;48.520;11.228;2023-02-13T07:45:14;-0.20;99.90
12720;DHT22;6424;48.520;11.228;2023-02-13T07:47:56;-0.10;99.90
12720;DHT22;6424;48.520;11.228;2023-02-13T07:50:36;-0.10;99.90
12720;DHT22;6424;48.520;11.228;2023-02-13T07:53:17;0.00;99.90
12720;DHT22;6424;48.520;11.228;2023-02-13T07:55:58;0.00;99.90
12720;DHT22;6424;48.520;11.228;2023-02-13T07:58:39;0.00;99.90
12720;DHT22;6424;48.520;11.228;2023-02-13T08:01:20;0.00;99.90
12720;DHT22;6424;48.520;11.228;2023-02-13T08:03:49;0.10;99.90
12720;DHT22;6424;48.520;11.228;2023-02-13T08:06:30;0.10;99.90
12720;DHT22;6424;48.520;11.228;2023-02-13T08:09:18;0.10;99.90
12720;DHT22;6424;48.520;11.228;2023-02-13T08:12:18;0.10;99.90
12720;DHT22;6424;48.520;11.228;2023-02-13T08:14:58;0.10;99.90
12720;DHT22;6424;48.520;11.228;2023-02-13T08:17:39;0.10;99.90
12720;DHT22;6424;48.520;11.228;2023-02-13T08:20:20;0.10;99.90
12720;DHT22;6424;48.520;11.228;2023-02-13T08:23:05;0.10;99.90
12720;DHT22;6424;48.520;11.228;2023-02-13T08:25:46;0.20;99.90
12720;DHT22;6424;48.520;11.228;2023-02-13T08:28:29;0.20;99.90
12720;DHT22;6424;48.520;11.228;2023-02-13T08:31:12;0.30;99.90
12720;DHT22;6424;48.520;11.228;2023-02-13T08:33:55;0.40;99.90
12720;DHT22;6424;48.520;11.228;2023-02-13T08:36:36;0.40;99.90
12720;DHT22;6424;48.520;11.228;2023-02-13T08:39:16;0.50;99.90
12720;DHT22;6424;48.520;11.228;2023-02-13T08:41:57;0.50;99.90
12720;DHT22;6424;48.520;11.228;2023-02-13T08:44:38;0.50;99.90
12720;DHT22;6424;48.520;11.228;2023-02-13T08:47:06;0.50;99.90
12720;DHT22;6424;48.520;11.228;2023-02-13T08:49:32;0.60;99.90
12720;DHT22;6424;48.520;11.228;2023-02-13T08:52:13;0.60;99.90
12720;DHT22;6424;48.520;11.228;2023-02-13T08:54:54;0.60;99.90
12720;DHT22;6424;48.520;11.228;2023-02-13T08:57:35;0.60;99.90
12720;DHT22;6424;48.520;11.228;2023-02-13T09:00:15;0.60;99.90
12720;DHT22;6424;48.520;11.228;2023-02-13T09:03:00;0.60;99.90
12720;DHT22;6424;48.520;11.228;2023-02-13T09:05:42;0.70;99.90
12720;DHT22;6424;48.520;11.228;2023-02-13T09:08:08;0.70;99.90
12720;DHT22;6424;48.520;11.228;2023-02-13T09:10:56;0.70;99.90
12720;DHT22;6424;48.520;11.228;2023-02-13T09:13:37;0.80;99.90
12720;DHT22;6424;48.520;11.228;2023-02-13T09:16:19;0.80;99.90
12720;DHT22;6424;48.520;11.228;2023-02-13T09:18:49;0.80;99.90
12720;DHT22;6424;48.520;11.228;2023-02-13T09:21:30;0.80;99.90
12720;DHT22;6424;48.520;11.228;2023-02-13T09:24:11;0.90;99.90
12720;DHT22;6424;48.520;11.228;2023-02-13T09:26:51;0.90;99.90
12720;DHT22;6424;48.520;11.228;2023-02-13T09:29:32;0.90;99.90
12720;DHT22;6424;48.520;11.228;2023-02-13T09:32:13;0.90;99.90
12720;DHT22;6424;48.520;11.228;2023-02-13T09:34:55;1.00;99.90
12720;DHT22;6424;48.520;11.228;2023-02-13T09:37:36;1.00;99.90
12720;DHT22;6424;48.520;11.228;2023-02-13T09:40:02;1.10;99.90
12720;DHT22;6424;48.520;11.228;2023-02-13T09:42:44;1.10;99.90
12720;DHT22;6424;48.520;11.228;2023-02-13T09:45:25;1.20;99.90
12720;DHT22;6424;48.520;11.228;2023-02-13T09:48:10;1.20;99.90
12720;DHT22;6424;48.520;11.228;2023-02-13T09:50:56;1.20;99.90
12720;DHT22;6424;48.520;11.228;2023-02-13T09:53:37;1.20;99.90
12720;DHT22;6424;48.520;11.228;2023-02-13T09:56:35;1.30;99.90
12720;DHT22;6424;48.520;11.228;2023-02-13T10:17:35;1.50;99.90
12720;DHT22;6424;48.520;11.228;2023-02-13T10:20:29;1.60;99.90
12720;DHT22;6424;48.520;11.228;2023-02-13T10:23:24;1.60;99.90
12720;DHT22;6424;48.520;11.228;2023-02-13T10:26:22;1.70;99.90
12720;DHT22;6424;48.520;11.228;2023-02-13T10:29:12;1.60;99.90
12720;DHT22;6424;48.520;11.228;2023-02-13T10:32:16;1.50;99.90
12720;DHT22;6424;48.520;11.228;2023-02-13T10:35:00;1.60;99.90
12720;DHT22;6424;48.520;11.228;2023-02-13T10:37:42;1.60;99.90
12720;DHT22;6424;48.520;11.228;2023-02-13T10:40:31;1.70;99.90
12720;DHT22;6424;48.520;11.228;2023-02-13T10:43:20;1.70;99.90
12720;DHT22;6424;48.520;11.228;2023-02-13T10:58:20;2.00;99.90
12720;DHT22;6424;48.520;11.228;2023-02-13T11:01:16;2.00;99.90
12720;DHT22;6424;48.520;11.228;2023-02-13T11:04:12;2.10;99.90
12720;DHT22;6424;48.520;11.228;2023-02-13T11:06:55;2.20;99.90
12720;DHT22;6424;48.520;11.228;2023-02-13T11:09:40;2.40;99.90
12720;DHT22;6424;48.520;11.228;2023-02-13T11:12:27;2.50;99.90
12720;DHT22;6424;48.520;11.228;2023-02-13T11:15:21;2.50;99.90
12720;DHT22;6424;48.520;11.228;2023-02-13T11:18:17;2.60;99.90
12720;DHT22;6424;48.520;11.228;2023-02-13T11:21:20;2.70;99.90
12720;DHT22;6424;48.520;11.228;2023-02-13T11:24:02;2.70;99.90
12720;DHT22;6424;48.520;11.228;2023-02-13T11:26:43;2.80;99.90
12720;DHT22;6424;48.520;11.228;2023-02-13T11:29:27;2.80;99.90
12720;DHT22;6424;48.520;11.228;2023-02-13T11:32:24;2.80;99.90
12720;DHT22;6424;48.520;11.228;2023-02-13T11:41:10;3.00;99.90
12720;DHT22;6424;48.520;11.228;2023-02-13T11:43:44;3.00;99.90
12720;DHT22;6424;48.520;11.228;2023-02-13T11:46:42;3.00;99.90
12720;DHT22;6424;48.520;11.228;2023-02-13T11:49:28;3.00;99.90
12720;DHT22;6424;48.520;11.228;2023-02-13T11:52:25;3.00;99.90
12720;DHT22;6424;48.520;11.228;2023-02-13T11:55:27;3.00;99.90
12720;DHT22;6424;48.520;11.228;2023-02-13T12:04:16;3.00;99.90
12720;DHT22;6424;48.520;11.228;2023-02-13T12:07:11;3.10;99.90
12720;DHT22;6424;48.520;11.228;2023-02-13T12:10:21;3.10;99.90
12720;DHT22;6424;48.520;11.228;2023-02-13T12:13:41;3.20;99.90
12720;DHT22;6424;48.520;11.228;2023-02-13T12:16:07;3.30;99.90
12720;DHT22;6424;48.520;11.228;2023-02-13T12:18:52;3.40;99.90
12720;DHT22;6424;48.520;11.228;2023-02-13T12:39:36;3.30;99.90
12720;DHT22;6424;48.520;11.228;2023-02-13T12:49:07;3.30;99.90
12720;DHT22;6424;48.520;11.228;2023-02-13T13:04:35;3.40;99.90
12720;DHT22;6424;48.520;11.228;2023-02-13T13:19:25;3.50;99.90
12720;DHT22;6424;48.520;11.228;2023-02-13T13:22:18;3.60;99.90
12720;DHT22;6424;48.520;11.228;2023-02-13T13:28:10;3.60;99.90
12720;DHT22;6424;48.520;11.228;2023-02-13T13:30:54;3.60;99.90
12720;DHT22;6424;48.520;11.228;2023-02-13T13:33:40;3.60;99.90
12720;DHT22;6424;48.520;11.228;2023-02-13T13:42:38;3.70;99.90
12720;DHT22;6424;48.520;11.228;2023-02-13T13:51:35;3.60;99.90
12720;DHT22;6424;48.520;11.228;2023-02-13T13:54:18;3.50;99.90
12720;DHT22;6424;48.520;11.228;2023-02-13T13:57:03;3.40;99.90
12720;DHT22;6424;48.520;11.228;2023-02-13T14:11:39;3.40;99.90
12720;DHT22;6424;48.520;11.228;2023-02-13T14:17:12;3.40;99.90
12720;DHT22;6424;48.520;11.228;2023-02-13T14:19:55;3.40;99.90
12720;DHT22;6424;48.520;11.228;2023-02-13T14:22:37;3.40;99.90
12720;DHT22;6424;48.520;11.228;2023-02-13T14:25:26;3.50;99.90
12720;DHT22;6424;48.520;11.228;2023-02-13T14:28:01;3.50;99.90
12720;DHT22;6424;48.520;11.228;2023-02-13T14:30:42;3.50;99.90
12720;DHT22;6424;48.520;11.228;2023-02-13T14:33:27;3.50;99.90
12720;DHT22;6424;48.520;11.228;2023-02-13T14:36:25;3.40;99.90
12720;DHT22;6424;48.520;11.228;2023-02-13T14:39:26;3.40;99.90
12720;DHT22;6424;48.520;11.228;2023-02-13T14:42:27;3.30;99.90
12720;DHT22;6424;48.520;11.228;2023-02-13T14:44:59;3.30;99.90
12720;DHT22;6424;48.520;11.228;2023-02-13T14:47:47;3.30;99.90
12720;DHT22;6424;48.520;11.228;2023-02-13T14:50:46;3.30;99.90
12720;DHT22;6424;48.520;11.228;2023-02-13T14:53:50;3.30;99.90
12720;DHT22;6424;48.520;11.228;2023-02-13T14:56:32;3.30;99.90
12720;DHT22;6424;48.520;11.228;2023-02-13T14:59:25;3.20;99.90
12720;DHT22;6424;48.520;11.228;2023-02-13T15:02:16;3.20;99.90
12720;DHT22;6424;48.520;11.228;2023-02-13T15:05:05;3.10;99.90
12720;DHT22;6424;48.520;11.228;2023-02-13T15:08:03;3.00;99.90
12720;DHT22;6424;48.520;11.228;2023-02-13T15:10:48;3.00;99.90
12720;DHT22;6424;48.520;11.228;2023-02-13T15:13:35;2.90;99.90
12720;DHT22;6424;48.520;11.228;2023-02-13T15:16:16;2.90;99.90
12720;DHT22;6424;48.520;11.228;2023-02-13T15:18:58;2.90;99.90
12720;DHT22;6424;48.520;11.228;2023-02-13T15:21:46;2.90;99.90
12720;DHT22;6424;48.520;11.228;2023-02-13T15:24:46;2.80;99.90
12720;DHT22;6424;48.520;11.228;2023-02-13T15:27:30;2.80;99.90
12720;DHT22;6424;48.520;11.228;2023-02-13T15:33:02;2.80;99.90
12720;DHT22;6424;48.520;11.228;2023-02-13T15:35:44;2.70;99.90
12720;DHT22;6424;48.520;11.228;2023-02-13T15:41:23;2.70;99.90
12720;DHT22;6424;48.520;11.228;2023-02-13T15:44:06;2.60;99.90
12720;DHT22;6424;48.520;11.228;2023-02-13T15:46:48;2.60;99.90
12720;DHT22;6424;48.520;11.228;2023-02-13T15:49:41;2.60;99.90
12720;DHT22;6424;48.520;11.228;2023-02-13T15:52:35;2.70;99.90
12720;DHT22;6424;48.520;11.228;2023-02-13T15:55:19;2.60;99.90
12720;DHT22;6424;48.520;11.228;2023-02-13T15:58:00;2.60;99.90
12720;DHT22;6424;48.520;11.228;2023-02-13T16:00:41;2.70;99.90
12720;DHT22;6424;48.520;11.228;2023-02-13T16:03:24;2.60;99.90
12720;DHT22;6424;48.520;11.228;2023-02-13T16:05:51;2.60;99.90
12720;DHT22;6424;48.520;11.228;2023-02-13T16:08:35;2.60;99.90
12720;DHT22;6424;48.520;11.228;2023-02-13T16:11:38;2.60;99.90
12720;DHT22;6424;48.520;11.228;2023-02-13T16:14:24;2.60;99.90
12720;DHT22;6424;48.520;11.228;2023-02-13T16:17:15;2.60;99.90
12720;DHT22;6424;48.520;11.228;2023-02-13T16:20:02;2.60;99.90
12720;DHT22;6424;48.520;11.228;2023-02-13T16:22:53;2.50;99.90
12720;DHT22;6424;48.520;11.228;2023-02-13T16:25:37;2.50;99.90
12720;DHT22;6424;48.520;11.228;2023-02-13T16:28:13;2.60;99.90
12720;DHT22;6424;48.520;11.228;2023-02-13T16:30:57;2.60;99.90
12720;DHT22;6424;48.520;11.228;2023-02-13T16:33:39;2.60;99.90
12720;DHT22;6424;48.520;11.228;2023-02-13T16:36:29;2.50;99.90
12720;DHT22;6424;48.520;11.228;2023-02-13T16:38:55;2.60;99.90
12720;DHT22;6424;48.520;11.228;2023-02-13T16:41:36;2.60;99.90
12720;DHT22;6424;48.520;11.228;2023-02-13T16:44:29;2.60;99.90
12720;DHT22;6424;48.520;11.228;2023-02-13T16:47:22;2.60;99.90
12720;DHT22;6424;48.520;11.228;2023-02-13T16:50:11;2.60;99.90
12720;DHT22;6424;48.520;11.228;2023-02-13T16:53:02;2.60;99.90
12720;DHT22;6424;48.520;11.228;2023-02-13T16:55:43;2.60;99.90
12720;DHT22;6424;48.520;11.228;2023-02-13T16:58:12;2.60;99.90
12720;DHT22;6424;48.520;11.228;2023-02-13T17:00:53;2.60;99.90
12720;DHT22;6424;48.520;11.228;2023-02-13T17:03:34;2.60;99.90
12720;DHT22;6424;48.520;11.228;2023-02-13T17:06:15;2.60;99.90
12720;DHT22;6424;48.520;11.228;2023-02-13T17:08:56;2.60;99.90
12720;DHT22;6424;48.520;11.228;2023-02-13T17:11:37;2.60;99.90
12720;DHT22;6424;48.520;11.228;2023-02-13T17:14:19;2.60;99.90
12720;DHT22;6424;48.520;11.228;2023-02-13T17:17:00;2.60;99.90
12720;DHT22;6424;48.520;11.228;2023-02-13T17:19:43;2.60;99.90
12720;DHT22;6424;48.520;11.228;2023-02-13T17:22:33;2.70;99.90
12720;DHT22;6424;48.520;11.228;2023-02-13T17:28:18;2.60;99.90
12720;DHT22;6424;48.520;11.228;2023-02-13T17:31:00;2.60;99.90
12720;DHT22;6424;48.520;11.228;2023-02-13T17:33:41;2.70;99.90
12720;DHT22;6424;48.520;11.228;2023-02-13T17:36:22;2.70;99.90
12720;DHT22;6424;48.520;11.228;2023-02-13T17:39:03;2.70;99.90
12720;DHT22;6424;48.520;11.228;2023-02-13T17:41:44;2.70;99.90
12720;DHT22;6424;48.520;11.228;2023-02-13T17:44:25;2.80;99.90
12720;DHT22;6424;48.520;11.228;2023-02-13T17:47:05;2.70;99.90
12720;DHT22;6424;48.520;11.228;2023-02-13T17:49:46;2.70;99.90
12720;DHT22;6424;48.520;11.228;2023-02-13T17:52:29;2.70;99.90
12720;DHT22;6424;48.520;11.228;2023-02-13T17:55:16;2.70;99.90
12720;DHT22;6424;48.520;11.228;2023-02-13T17:57:58;2.80;99.90
12720;DHT22;6424;48.520;11.228;2023-02-13T18:00:39;2.70;99.90
12720;DHT22;6424;48.520;11.228;2023-02-13T18:03:20;2.70;99.90
12720;DHT22;6424;48.520;11.228;2023-02-13T18:06:01;2.70;99.90
12720;DHT22;6424;48.520;11.228;2023-02-13T18:08:42;2.80;99.90
12720;DHT22;6424;48.520;11.228;2023-02-13T18:11:23;2.80;99.90
12720;DHT22;6424;48.520;11.228;2023-02-13T18:14:04;2.80;99.90
12720;DHT22;6424;48.520;11.228;2023-02-13T18:16:45;2.80;99.90
12720;DHT22;6424;48.520;11.228;2023-02-13T18:19:26;2.70;99.90
12720;DHT22;6424;48.520;11.228;2023-02-13T18:22:08;2.70;99.90
12720;DHT22;6424;48.520;11.228;2023-02-13T18:24:49;2.70;99.90
12720;DHT22;6424;48.520;11.228;2023-02-13T18:27:30;2.70;99.90
12720;DHT22;6424;48.520;11.228;2023-02-13T18:30:12;2.70;99.90
12720;DHT22;6424;48.520;11.228;2023-02-13T18:32:54;2.60;99.90
12720;DHT22;6424;48.520;11.228;2023-02-13T18:35:35;2.60;99.90
12720;DHT22;6424;48.520;11.228;2023-02-13T18:38:16;2.50;99.90
12720;DHT22;6424;48.520;11.228;2023-02-13T18:40:57;2.50;99.90
12720;DHT22;6424;48.520;11.228;2023-02-13T18:43:38;2.60;99.90
12720;DHT22;6424;48.520;11.228;2023-02-13T18:46:19;2.60;99.90
12720;DHT22;6424;48.520;11.228;2023-02-13T18:48:59;2.50;99.90
12720;DHT22;6424;48.520;11.228;2023-02-13T18:51:40;2.60;99.90
12720;DHT22;6424;48.520;11.228;2023-02-13T18:54:23;2.50;99.90
12720;DHT22;6424;48.520;11.228;2023-02-13T18:57:04;2.50;99.90
12720;DHT22;6424;48.520;11.228;2023-02-13T18:59:30;2.30;99.90
12720;DHT22;6424;48.520;11.228;2023-02-13T19:02:11;2.30;99.90
12720;DHT22;6424;48.520;11.228;2023-02-13T19:04:52;2.20;99.90
12720;DHT22;6424;48.520;11.228;2023-02-13T19:07:32;2.20;99.90
12720;DHT22;6424;48.520;11.228;2023-02-13T19:10:13;2.10;99.90
12720;DHT22;6424;48.520;11.228;2023-02-13T19:12:55;2.10;99.90
12720;DHT22;6424;48.520;11.228;2023-02-13T19:15:35;2.10;99.90
12720;DHT22;6424;48.520;11.228;2023-02-13T19:18:16;2.10;99.90
12720;DHT22;6424;48.520;11.228;2023-02-13T19:20:42;2.10;99.90
12720;DHT22;6424;48.520;11.228;2023-02-13T19:23:23;2.00;99.90
12720;DHT22;6424;48.520;11.228;2023-02-13T19:26:09;2.00;99.90
12720;DHT22;6424;48.520;11.228;2023-02-13T19:28:50;1.90;99.90
12720;DHT22;6424;48.520;11.228;2023-02-13T19:31:32;1.90;99.90
12720;DHT22;6424;48.520;11.228;2023-02-13T19:34:12;1.80;99.90
12720;DHT22;6424;48.520;11.228;2023-02-13T19:36:38;1.80;99.90
12720;DHT22;6424;48.520;11.228;2023-02-13T19:39:19;1.70;99.90
12720;DHT22;6424;48.520;11.228;2023-02-13T19:42:00;1.70;99.90
12720;DHT22;6424;48.520;11.228;2023-02-13T19:44:40;1.70;99.90
12720;DHT22;6424;48.520;11.228;2023-02-13T19:47:21;1.60;99.90
12720;DHT22;6424;48.520;11.228;2023-02-13T19:50:02;1.60;99.90
12720;DHT22;6424;48.520;11.228;2023-02-13T19:52:43;1.60;99.90
12720;DHT22;6424;48.520;11.228;2023-02-13T19:55:23;1.60;99.90
12720;DHT22;6424;48.520;11.228;2023-02-13T19:58:06;1.60;99.90
12720;DHT22;6424;48.520;11.228;2023-02-13T20:00:46;1.50;99.90
12720;DHT22;6424;48.520;11.228;2023-02-13T20:03:28;1.50;99.90
12720;DHT22;6424;48.520;11.228;2023-02-13T20:06:16;1.50;99.90
12720;DHT22;6424;48.520;11.228;2023-02-13T20:08:59;1.50;99.90
12720;DHT22;6424;48.520;11.228;2023-02-13T20:11:42;1.50;99.90
12720;DHT22;6424;48.520;11.228;2023-02-13T20:14:22;1.40;99.90
12720;DHT22;6424;48.520;11.228;2023-02-13T20:17:03;1.40;99.90
12720;DHT22;6424;48.520;11.228;2023-02-13T20:19:44;1.40;99.90
12720;DHT22;6424;48.520;11.228;2023-02-13T20:22:27;1.40;99.90